createdAt,value
2017-10-19T00:03:22.856Z,0.0
2017-10-19T00:14:07.509Z,0.0
2017-10-19T00:24:21.689Z,0.0
2017-10-19T00:35:06.480Z,0.0
2017-10-19T00:45:20.571Z,0.0
2017-10-19T00:56:05.319Z,0.0
2017-10-19T01:06:16.744Z,0.0
2017-10-19T01:16:28.750Z,0.0
2017-10-19T01:26:43.254Z,0.0
2017-10-19T01:37:27.637Z,0.0
2017-10-19T01:47:42.001Z,0.0
2017-10-19T01:58:26.513Z,0.0
2017-10-19T02:08:40.937Z,0.0
2017-10-19T02:18:55.099Z,0.0
2017-10-19T02:29:06.555Z,0.0
2017-10-19T02:39:20.926Z,0.0
2017-10-19T02:49:34.883Z,0.0
2017-10-19T02:59:49.202Z,0.0
2017-10-19T03:10:03.439Z,0.0
2017-10-19T03:20:53.232Z,0.0
2017-10-19T03:31:37.825Z,0.0
2017-10-19T03:42:22.807Z,0.0
2017-10-19T03:52:37.063Z,0.0
2017-10-19T04:02:51.205Z,0.0
2017-10-19T04:13:05.343Z,0.0
2017-10-19T04:23:16.742Z,0.0
2017-10-19T04:33:30.791Z,0.0
2017-10-19T04:43:45.446Z,0.0
2017-10-19T04:53:59.455Z,0.0
2017-10-19T05:04:13.758Z,0.0
2017-10-19T05:14:27.870Z,0.0
2017-10-19T05:24:41.984Z,0.0
2017-10-19T05:34:56.373Z,0.0
2017-10-19T05:45:10.635Z,16.0
2017-10-19T05:55:22.712Z,64.0
2017-10-19T06:06:13.159Z,188.0
2017-10-19T06:16:27.067Z,384.0
2017-10-19T06:26:45.933Z,696.0
2017-10-19T06:37:03.666Z,1088.0
2017-10-19T06:47:25.439Z,1580.0
2017-10-19T06:57:48.150Z,2216.0
2017-10-19T07:08:39.144Z,3008.0
2017-10-19T07:19:44.111Z,3880.0
2017-10-19T07:29:58.411Z,10252.0
2017-10-19T07:40:12.538Z,14016.0
2017-10-19T07:50:26.984Z,22976.0
2017-10-19T08:00:41.797Z,25696.0
2017-10-19T08:10:55.366Z,26656.0
2017-10-19T08:21:09.455Z,29856.0
2017-10-19T08:31:23.662Z,22720.0
2017-10-19T08:41:37.953Z,31520.0
2017-10-19T08:51:52.164Z,11284.0
2017-10-19T09:02:06.332Z,12296.0
2017-10-19T09:12:20.391Z,13112.0
2017-10-19T09:22:34.583Z,18784.0
2017-10-19T09:32:48.733Z,49600.0
2017-10-19T09:43:03.008Z,46560.0
2017-10-19T09:53:14.013Z,55968.0
2017-10-19T10:03:28.292Z,52672.0
2017-10-19T10:13:42.546Z,55296.0
2017-10-19T10:23:56.825Z,57600.0
2017-10-19T10:34:41.615Z,54496.0
2017-10-19T10:44:54.933Z,57216.0
2017-10-19T10:55:09.416Z,50304.0
2017-10-19T11:05:23.286Z,31488.0
2017-10-19T11:15:37.679Z,27584.0
2017-10-19T11:26:24.071Z,26944.0
2017-10-19T11:36:37.669Z,25056.0
2017-10-19T11:46:53.893Z,32000.0
2017-10-19T11:57:08.741Z,41728.0
2017-10-19T12:08:31.314Z,48480.0
2017-10-19T12:18:42.813Z,36896.0
2017-10-19T12:29:27.470Z,44416.0
2017-10-19T12:40:12.233Z,52992.0
2017-10-19T12:50:44.903Z,42432.0
2017-10-19T13:01:31.903Z,38880.0
2017-10-19T13:11:47.246Z,29792.0
2017-10-19T13:21:59.445Z,26720.0
2017-10-19T13:32:13.743Z,35264.0
2017-10-19T13:42:29.412Z,52800.0
2017-10-19T13:52:54.916Z,40480.0
2017-10-19T14:03:09.212Z,25280.0
2017-10-19T14:13:23.285Z,27360.0
2017-10-19T14:23:36.644Z,18528.0
2017-10-19T14:35:18.107Z,16256.0
2017-10-19T14:45:32.521Z,11452.0
2017-10-19T14:55:46.412Z,6368.0
2017-10-19T15:06:01.824Z,4504.0
2017-10-19T15:16:27.290Z,3980.0
2017-10-19T15:27:11.636Z,3292.0
2017-10-19T15:37:46.508Z,2416.0
2017-10-19T15:48:05.595Z,1840.0
2017-10-19T15:59:30.318Z,1196.0
2017-10-19T16:10:26.353Z,760.0
2017-10-19T16:20:40.772Z,360.0
2017-10-19T16:31:25.970Z,152.0
2017-10-19T16:42:11.078Z,28.0
2017-10-19T16:52:23.004Z,4.0
2017-10-19T17:02:34.140Z,0.0
2017-10-19T17:12:48.253Z,0.0
2017-10-19T17:23:01.901Z,0.0
2017-10-19T17:33:13.543Z,0.0
2017-10-19T17:43:58.238Z,0.0
2017-10-19T17:54:43.796Z,0.0
2017-10-19T18:04:59.037Z,0.0
2017-10-19T18:15:13.650Z,0.0
2017-10-19T18:26:03.361Z,0.0
2017-10-19T18:36:17.476Z,0.0
2017-10-19T18:47:38.465Z,0.0
2017-10-19T18:57:53.756Z,0.0
2017-10-19T19:08:07.924Z,0.0
2017-10-19T19:18:21.920Z,0.0
2017-10-19T19:28:36.607Z,0.0
2017-10-19T19:38:53.538Z,0.0
2017-10-19T19:49:09.428Z,0.0
2017-10-19T19:59:24.133Z,0.0
2017-10-19T20:09:37.982Z,0.0
2017-10-19T20:20:22.754Z,0.0
2017-10-19T20:30:36.818Z,0.0
2017-10-19T20:40:51.179Z,0.0
2017-10-19T20:51:35.627Z,0.0
2017-10-19T21:01:47.038Z,0.0
2017-10-19T21:12:03.039Z,0.0
2017-10-19T21:22:26.482Z,0.0
2017-10-19T21:32:48.931Z,0.0
2017-10-19T21:43:02.824Z,0.0
2017-10-19T21:53:16.557Z,0.0
2017-10-19T22:03:30.564Z,0.0
2017-10-19T22:13:45.307Z,0.0
2017-10-19T22:24:06.408Z,0.0
2017-10-19T22:34:20.305Z,0.0
2017-10-19T22:44:34.710Z,0.0
2017-10-19T22:54:48.639Z,0.0
2017-10-19T23:05:03.041Z,0.0
2017-10-19T23:15:17.317Z,0.0
2017-10-19T23:25:31.627Z,0.0
2017-10-19T23:35:45.713Z,0.0
2017-10-19T23:45:59.973Z,0.0
2017-10-19T23:56:14.379Z,0.0
